Time;durP1;ratioP1;P1;durP2;ratioP2;P2;SDS_P1;SDS_P2;PMS_P1;PMS_P2;Temp;Humidity;BMP_temperature;BMP_pressure;BME280_temperature;BME280_humidity;BME280_pressure;Samples;Min_cycle;Max_cycle;Signal;HPM_P1;HPM_P2
2022/03/25 00:00:24;;;;;;;;;;;;;;;12.02;50.56;98782.16;5047669;28;19928;-79
2022/03/25 00:02:51;;;;;;;;;;;;;;;11.88;51.32;98774.50;5039417;28;19924;-79
2022/03/25 00:05:17;;;;;;;;;;;;;;;12.05;51.07;98781.66;5053775;28;20365;-79
2022/03/25 00:07:43;;;;;;;;;;;;;;;12.13;50.77;98779.34;5031020;28;20065;-78
2022/03/25 00:10:11;;;;;;;;;;;;;;;12.08;50.74;98775.81;5051197;28;20030;-81
2022/03/25 00:12:38;;;;;;;;;;;;;;;12.09;50.70;98782.78;5043030;28;20038;-78
2022/03/25 00:15:04;;;;;;;;;;;;;;;12.04;50.91;98780.84;5047536;28;19935;-79
2022/03/25 00:17:31;;;;;;;;;;;;;;;12.04;51.03;98780.06;5044700;28;20439;-79
2022/03/25 00:19:57;;;;;;;;;;;;;;;12.09;50.74;98778.25;5047962;28;19929;-78
2022/03/25 00:22:23;;;;;;;;;;;;;;;12.05;51.06;98781.66;5041062;28;20320;-79
2022/03/25 00:24:50;;;;;;;;;;;;;;;12.12;51.06;98777.75;5044743;28;19935;-78
2022/03/25 00:27:18;;;;;;;;;;;;;;;11.99;51.20;98778.13;5046120;28;19930;-80
2022/03/25 00:29:45;;;;;;;;;;;;;;;11.97;51.58;98782.13;5044063;28;19925;-79
2022/03/25 00:32:11;;;;;;;;;;;;;;;11.94;51.54;98772.72;5041985;28;20556;-78
2022/03/25 00:34:38;;;;;;;;;;;;;;;11.94;51.35;98770.06;5044406;28;20663;-78
2022/03/25 00:37:05;;;;;;;;;;;;;;;11.91;51.65;98771.34;5050062;28;19931;-79
2022/03/25 00:39:31;;;;;;;;;;;;;;;11.93;51.83;98768.41;5045000;28;19998;-80
2022/03/25 00:41:57;;;;;;;;;;;;;;;11.87;51.62;98778.25;5046802;28;20039;-77
2022/03/25 00:44:25;;;;;;;;;;;;;;;11.82;52.03;98767.47;5030428;28;20024;-81
2022/03/25 00:46:51;;;;;;;;;;;;;;;11.86;51.90;98771.28;5048225;28;19924;-81
2022/03/25 00:49:18;;;;;;;;;;;;;;;11.72;52.19;98774.59;5048365;28;19934;-77
2022/03/25 00:51:46;;;;;;;;;;;;;;;11.80;52.42;98774.16;5028318;28;19967;-78
2022/03/25 00:54:12;;;;;;;;;;;;;;;11.77;52.93;98763.94;5043416;28;20727;-78
2022/03/25 00:56:38;;;;;;;;;;;;;;;11.74;52.82;98769.78;5047628;28;19925;-79
2022/03/25 00:59:05;;;;;;;;;;;;;;;11.69;52.54;98772.38;5048400;28;19924;-78
2022/03/25 01:01:33;;;;;;;;;;;;;;;11.62;52.93;98764.53;5049714;28;20011;-79
2022/03/25 01:03:59;;;;;;;;;;;;;;;11.73;52.68;98755.59;5040080;28;20024;-78
2022/03/25 01:06:25;;;;;;;;;;;;;;;11.73;52.70;98752.09;5052780;28;20659;-80
2022/03/25 01:08:52;;;;;;;;;;;;;;;11.72;52.69;98762.03;5042410;28;19928;-79
2022/03/25 01:11:18;;;;;;;;;;;;;;;11.64;53.30;98769.63;5049217;28;19963;-81
2022/03/25 01:13:44;;;;;;;;;;;;;;;11.66;53.21;98749.63;5048760;28;19928;-79
2022/03/25 01:16:11;;;;;;;;;;;;;;;11.59;53.41;98754.34;5047525;28;19960;-79
2022/03/25 01:18:38;;;;;;;;;;;;;;;11.53;53.75;98760.69;5052297;28;19959;-79
2022/03/25 01:21:05;;;;;;;;;;;;;;;11.47;53.98;98753.66;5051794;28;20321;-78
2022/03/25 01:23:31;;;;;;;;;;;;;;;11.52;53.86;98753.72;5045643;28;19928;-78
2022/03/25 01:25:58;;;;;;;;;;;;;;;11.49;54.02;98751.53;5047376;28;19990;-78
2022/03/25 01:28:24;;;;;;;;;;;;;;;11.47;54.00;98750.97;5049259;28;19928;-77
2022/03/25 01:30:51;;;;;;;;;;;;;;;11.47;54.17;98747.50;5046233;28;20008;-78
2022/03/25 01:33:18;;;;;;;;;;;;;;;11.46;54.30;98748.53;5045913;28;20000;-77
2022/03/25 01:35:47;;;;;;;;;;;;;;;11.47;54.78;98756.31;5051738;28;19971;-78
2022/03/25 01:38:13;;;;;;;;;;;;;;;11.08;55.61;98752.06;5047044;28;20606;-78
2022/03/25 01:40:39;;;;;;;;;;;;;;;11.04;56.51;98758.94;5043992;28;19928;-80
2022/03/25 01:43:06;;;;;;;;;;;;;;;11.01;57.07;98762.09;5043374;28;19929;-76
2022/03/25 01:45:34;;;;;;;;;;;;;;;10.96;57.77;98759.31;5044646;28;19928;-79
2022/03/25 01:48:01;;;;;;;;;;;;;;;11.02;57.34;98755.69;5041643;28;20786;-79
2022/03/25 01:50:27;;;;;;;;;;;;;;;11.28;55.80;98752.31;5043385;28;19936;-78
2022/03/25 01:52:55;;;;;;;;;;;;;;;11.33;55.42;98747.03;5045164;28;19925;-77
2022/03/25 01:55:24;;;;;;;;;;;;;;;11.35;55.20;98755.63;5046599;28;19929;-78
2022/03/25 01:57:51;;;;;;;;;;;;;;;11.40;55.33;98747.66;5041617;28;19947;-77
2022/03/25 02:00:18;;;;;;;;;;;;;;;11.25;55.81;98744.78;5045933;28;20658;-77
2022/03/25 02:02:45;;;;;;;;;;;;;;;10.99;57.56;98743.63;5038332;28;19959;-79
2022/03/25 02:05:12;;;;;;;;;;;;;;;11.15;57.27;98750.81;5052366;28;19929;-78
2022/03/25 02:07:38;;;;;;;;;;;;;;;11.16;56.97;98741.75;5048962;28;19932;-77
2022/03/25 02:10:06;;;;;;;;;;;;;;;11.17;56.32;98738.00;5049453;28;19963;-79
2022/03/25 02:12:32;;;;;;;;;;;;;;;11.00;58.05;98752.44;5043933;28;20619;-78
2022/03/25 02:14:59;;;;;;;;;;;;;;;11.08;57.74;98738.69;5047663;28;19928;-78
2022/03/25 02:17:25;;;;;;;;;;;;;;;11.09;57.28;98734.94;5048592;28;19931;-81
2022/03/25 02:19:51;;;;;;;;;;;;;;;11.11;57.23;98747.00;5049688;28;19924;-77
2022/03/25 02:22:19;;;;;;;;;;;;;;;11.15;57.08;98744.66;5044826;28;19939;-79
2022/03/25 02:24:45;;;;;;;;;;;;;;;11.09;56.78;98746.44;5044574;28;20354;-79
2022/03/25 02:27:12;;;;;;;;;;;;;;;11.01;57.91;98751.41;5042485;28;19928;-79
2022/03/25 02:29:39;;;;;;;;;;;;;;;10.51;60.49;98757.56;5047899;28;20581;-78
2022/03/25 02:32:06;;;;;;;;;;;;;;;10.67;60.17;98756.78;5048977;28;19936;-79
2022/03/25 02:34:32;;;;;;;;;;;;;;;10.86;59.09;98753.84;5048737;28;20292;-77
2022/03/25 02:37:00;;;;;;;;;;;;;;;10.83;58.83;98758.59;5048867;28;19925;-78
2022/03/25 02:39:28;;;;;;;;;;;;;;;10.83;59.44;98753.25;5046442;28;20484;-77
2022/03/25 02:41:54;;;;;;;;;;;;;;;10.59;61.08;98756.34;5048578;28;19937;-77
2022/03/25 02:44:21;;;;;;;;;;;;;;;10.62;60.68;98758.53;5045298;28;19935;-78
2022/03/25 02:46:47;;;;;;;;;;;;;;;10.71;59.44;98757.88;5049380;28;19935;-78
2022/03/25 02:49:14;;;;;;;;;;;;;;;10.68;60.28;98754.88;5049008;28;19928;-78
2022/03/25 02:51:40;;;;;;;;;;;;;;;10.73;59.60;98754.97;5045589;28;19932;-77
2022/03/25 02:54:07;;;;;;;;;;;;;;;10.63;60.53;98752.97;5045340;28;19939;-77
2022/03/25 02:56:34;;;;;;;;;;;;;;;10.24;63.49;98754.69;5046510;28;19925;-77
2022/03/25 02:59:01;;;;;;;;;;;;;;;10.44;62.51;98759.56;5048723;28;19936;-78
2022/03/25 03:01:28;;;;;;;;;;;;;;;10.10;65.06;98766.69;5050458;28;19928;-78
2022/03/25 03:03:54;;;;;;;;;;;;;;;10.28;64.26;98768.38;5055460;28;20470;-77
2022/03/25 03:06:21;;;;;;;;;;;;;;;10.14;64.83;98759.03;5054883;28;19928;-77
2022/03/25 03:08:47;;;;;;;;;;;;;;;10.21;65.08;98771.19;5044720;28;19929;-79
2022/03/25 03:11:13;;;;;;;;;;;;;;;9.90;66.87;98770.84;5048115;28;19931;-78
2022/03/25 03:13:41;;;;;;;;;;;;;;;10.20;65.40;98763.41;5052244;28;19992;-77
2022/03/25 03:16:08;;;;;;;;;;;;;;;10.46;63.57;98760.13;5045195;28;19928;-77
2022/03/25 03:18:35;;;;;;;;;;;;;;;10.47;62.20;98760.94;5052606;28;19924;-78
2022/03/25 03:21:01;;;;;;;;;;;;;;;10.45;62.45;98766.53;5047459;28;19932;-78
2022/03/25 03:23:27;;;;;;;;;;;;;;;10.54;61.82;98761.59;5047897;28;19929;-77
2022/03/25 03:25:54;;;;;;;;;;;;;;;10.56;61.15;98767.50;5044944;28;20553;-77
2022/03/25 03:28:20;;;;;;;;;;;;;;;10.61;61.80;98771.09;5045162;28;19925;-76
2022/03/25 03:30:48;;;;;;;;;;;;;;;10.56;61.21;98771.00;5048099;28;19924;-79
2022/03/25 03:33:14;;;;;;;;;;;;;;;10.58;60.94;98771.59;5048078;28;19931;-78
2022/03/25 03:35:41;;;;;;;;;;;;;;;10.47;61.54;98768.97;5048340;28;19990;-78
2022/03/25 03:38:08;;;;;;;;;;;;;;;10.40;61.99;98769.09;5047982;28;20025;-78
2022/03/25 03:40:34;;;;;;;;;;;;;;;10.40;62.12;98758.44;5047132;28;20588;-78
2022/03/25 03:43:03;;;;;;;;;;;;;;;10.41;62.74;98768.06;5043627;28;20415;-77
2022/03/25 03:45:32;;;;;;;;;;;;;;;10.20;64.30;98764.25;5047495;28;19933;-78
2022/03/25 03:47:59;;;;;;;;;;;;;;;9.38;71.01;98770.81;5048860;28;19964;-76
2022/03/25 03:50:26;;;;;;;;;;;;;;;8.66;77.69;98764.91;5029960;28;19947;-78
2022/03/25 03:52:52;;;;;;;;;;;;;;;8.44;81.69;98774.50;5043450;28;19925;-77
2022/03/25 03:55:19;;;;;;;;;;;;;;;9.29;77.19;98768.75;5044960;28;20343;-78
2022/03/25 03:57:45;;;;;;;;;;;;;;;9.82;71.89;98774.66;5045685;28;19925;-78
2022/03/25 04:00:13;;;;;;;;;;;;;;;10.07;68.79;98777.03;5047945;28;19935;-78
2022/03/25 04:02:39;;;;;;;;;;;;;;;10.24;67.08;98772.59;5038271;28;19928;-78
2022/03/25 04:05:07;;;;;;;;;;;;;;;10.27;66.32;98780.91;5051167;28;20703;-77
2022/03/25 04:07:39;;;;;;;;;;;;;;;10.04;67.07;98780.16;5047080;28;19929;-77
2022/03/25 04:10:05;;;;;;;;;;;;;;;10.07;66.56;98777.84;5049735;28;19924;-77
2022/03/25 04:12:32;;;;;;;;;;;;;;;10.01;67.36;98778.78;5047406;28;19925;-77
2022/03/25 04:14:58;;;;;;;;;;;;;;;9.95;67.45;98778.94;5047465;28;19934;-76
2022/03/25 04:17:25;;;;;;;;;;;;;;;9.98;67.38;98784.59;5047952;28;19933;-78
2022/03/25 04:19:52;;;;;;;;;;;;;;;10.04;66.80;98774.81;5049746;28;19935;-77
2022/03/25 04:22:19;;;;;;;;;;;;;;;9.96;66.67;98777.88;5043515;28;19961;-76
2022/03/25 04:24:46;;;;;;;;;;;;;;;10.03;67.16;98779.34;5046262;28;19931;-77
2022/03/25 04:27:12;;;;;;;;;;;;;;;10.07;66.30;98777.03;5047290;28;19935;-78
2022/03/25 04:29:38;;;;;;;;;;;;;;;9.98;66.75;98773.13;5044265;28;19929;-76
2022/03/25 04:32:05;;;;;;;;;;;;;;;9.92;66.73;98777.56;5048874;28;20339;-77
2022/03/25 04:34:32;;;;;;;;;;;;;;;10.03;66.71;98775.88;5047282;28;19928;-78
2022/03/25 04:36:58;;;;;;;;;;;;;;;9.98;66.01;98773.13;5049006;28;19928;-78
2022/03/25 04:39:26;;;;;;;;;;;;;;;9.96;65.87;98775.22;5042726;28;19925;-77
2022/03/25 04:41:52;;;;;;;;;;;;;;;9.87;67.46;98773.97;5048101;28;19935;-78
2022/03/25 04:44:18;;;;;;;;;;;;;;;9.63;69.19;98768.69;5030535;28;19928;-79
2022/03/25 04:46:44;;;;;;;;;;;;;;;9.47;71.01;98777.41;5046650;28;19935;-77
2022/03/25 04:49:11;;;;;;;;;;;;;;;9.10;74.11;98776.06;5046906;28;19934;-78
2022/03/25 04:51:37;;;;;;;;;;;;;;;9.53;72.61;98781.81;5044671;28;19929;-78
2022/03/25 04:54:04;;;;;;;;;;;;;;;9.56;70.90;98778.66;5042304;28;19932;-78
2022/03/25 04:56:34;;;;;;;;;;;;;;;9.60;70.02;98773.69;5044672;28;19929;-78
2022/03/25 04:59:00;;;;;;;;;;;;;;;9.64;69.91;98777.50;5046903;28;19990;-78
2022/03/25 05:01:26;;;;;;;;;;;;;;;9.67;69.47;98777.84;5048141;28;19978;-78
2022/03/25 05:03:52;;;;;;;;;;;;;;;9.64;69.41;98789.00;5051257;28;19932;-77
2022/03/25 05:06:19;;;;;;;;;;;;;;;9.86;68.58;98783.84;5049911;28;20015;-78
2022/03/25 05:08:45;;;;;;;;;;;;;;;9.71;68.27;98795.03;5041967;28;19940;-77
2022/03/25 05:11:11;;;;;;;;;;;;;;;9.44;70.65;98793.88;5046381;28;19925;-77
2022/03/25 05:13:39;;;;;;;;;;;;;;;9.15;71.94;98793.00;5051612;28;19929;-78
2022/03/25 05:16:06;;;;;;;;;;;;;;;9.03;74.79;98804.69;5043319;28;19925;-78
2022/03/25 05:18:32;;;;;;;;;;;;;;;9.20;73.82;98795.75;5051666;28;19928;-78
2022/03/25 05:21:00;;;;;;;;;;;;;;;9.35;72.42;98797.94;5045053;28;20392;-78
2022/03/25 05:23:26;;;;;;;;;;;;;;;9.41;71.32;98797.00;5046863;28;19975;-78
2022/03/25 05:25:52;;;;;;;;;;;;;;;9.34;71.63;98801.69;5042748;28;19928;-78
2022/03/25 05:28:19;;;;;;;;;;;;;;;9.38;72.41;98800.16;5043067;28;20538;-78
2022/03/25 05:30:46;;;;;;;;;;;;;;;9.34;72.32;98796.34;5045353;28;19936;-77
2022/03/25 05:33:13;;;;;;;;;;;;;;;9.34;71.84;98796.34;5046906;28;19930;-77
2022/03/25 05:35:39;;;;;;;;;;;;;;;9.15;73.51;98803.66;5048030;28;19928;-79
2022/03/25 05:38:05;;;;;;;;;;;;;;;9.17;73.07;98801.56;5050207;28;19928;-77
2022/03/25 05:40:32;;;;;;;;;;;;;;;9.14;72.59;98803.88;5050058;28;19924;-79
2022/03/25 05:42:58;;;;;;;;;;;;;;;9.29;73.14;98796.22;5047878;28;19947;-77
2022/03/25 05:45:25;;;;;;;;;;;;;;;9.38;71.97;98812.66;5046414;28;20622;-78
2022/03/25 05:47:52;;;;;;;;;;;;;;;9.29;71.99;98814.88;5049617;28;19935;-78
2022/03/25 05:50:19;;;;;;;;;;;;;;;9.34;72.07;98809.69;5050065;28;20703;-79
2022/03/25 05:52:45;;;;;;;;;;;;;;;9.40;72.47;98822.06;5047542;28;20332;-78
2022/03/25 05:55:13;;;;;;;;;;;;;;;9.11;74.49;98813.16;5047319;28;19925;-79
2022/03/25 05:57:40;;;;;;;;;;;;;;;8.70;77.67;98825.72;5049167;28;19936;-78
2022/03/25 06:00:08;;;;;;;;;;;;;;;9.00;76.17;98826.47;5045166;28;19929;-79
2022/03/25 06:02:35;;;;;;;;;;;;;;;8.92;76.91;98826.78;5056536;28;20485;-77
2022/03/25 06:05:03;;;;;;;;;;;;;;;9.01;75.90;98826.22;5056603;28;19939;-78
2022/03/25 06:07:35;;;;;;;;;;;;;;;9.06;76.17;98826.38;5050248;28;19936;-79
2022/03/25 06:10:01;;;;;;;;;;;;;;;9.18;75.18;98831.69;5053117;28;20399;-77
2022/03/25 06:12:27;;;;;;;;;;;;;;;9.35;73.22;98824.59;5049287;28;19929;-78
2022/03/25 06:14:54;;;;;;;;;;;;;;;9.41;71.90;98826.34;5031217;28;19928;-78
2022/03/25 06:17:20;;;;;;;;;;;;;;;9.52;71.70;98827.38;5050583;28;20342;-79
2022/03/25 06:19:46;;;;;;;;;;;;;;;9.34;73.71;98828.34;5054072;28;19955;-78
2022/03/25 06:22:14;;;;;;;;;;;;;;;9.47;72.64;98822.75;5046328;28;20584;-77
2022/03/25 06:24:40;;;;;;;;;;;;;;;9.37;73.45;98833.19;5048995;28;19929;-77
2022/03/25 06:27:07;;;;;;;;;;;;;;;9.50;72.95;98827.59;5049470;28;19928;-78
2022/03/25 06:29:35;;;;;;;;;;;;;;;9.38;74.04;98826.81;5048266;28;19935;-80
2022/03/25 06:32:03;;;;;;;;;;;;;;;9.24;75.60;98833.44;5045000;28;19996;-79
2022/03/25 06:34:29;;;;;;;;;;;;;;;9.43;74.17;98831.47;5045927;28;20035;-78
2022/03/25 06:36:56;;;;;;;;;;;;;;;9.61;73.70;98834.00;5045035;28;19932;-81
2022/03/25 06:39:23;;;;;;;;;;;;;;;9.73;72.53;98835.59;5056393;28;19928;-78
2022/03/25 06:41:50;;;;;;;;;;;;;;;9.84;71.70;98838.47;5055554;28;19994;-78
2022/03/25 06:44:16;;;;;;;;;;;;;;;9.72;72.15;98836.63;5057362;28;19964;-78
2022/03/25 06:46:43;;;;;;;;;;;;;;;9.75;72.60;98836.16;5047636;28;19931;-79
2022/03/25 06:49:09;;;;;;;;;;;;;;;9.85;72.30;98832.91;5045518;28;19963;-79
2022/03/25 06:51:36;;;;;;;;;;;;;;;9.91;71.39;98847.97;5047718;28;19929;-79
2022/03/25 06:54:02;;;;;;;;;;;;;;;9.70;71.94;98849.41;5048047;28;19932;-78
2022/03/25 06:56:33;;;;;;;;;;;;;;;9.18;75.68;98845.00;5048747;28;20419;-78
2022/03/25 06:59:00;;;;;;;;;;;;;;;9.02;78.41;98851.03;5044388;28;20006;-81
2022/03/25 07:01:26;;;;;;;;;;;;;;;8.95;79.45;98856.44;5052690;28;19924;-78
2022/03/25 07:03:53;;;;;;;;;;;;;;;8.80;80.85;98856.06;5057145;28;19928;-79
2022/03/25 07:06:22;;;;;;;;;;;;;;;9.22;78.92;98851.53;5052243;28;19939;-78
2022/03/25 07:08:51;;;;;;;;;;;;;;;9.54;76.23;98851.94;5040887;28;19928;-79
2022/03/25 07:11:18;;;;;;;;;;;;;;;9.75;74.70;98854.00;5049402;28;19929;-80
2022/03/25 07:13:46;;;;;;;;;;;;;;;9.87;73.60;98856.69;5053797;28;20468;-80
2022/03/25 07:16:12;;;;;;;;;;;;;;;9.98;72.40;98861.19;5027766;28;19960;-81
2022/03/25 07:18:39;;;;;;;;;;;;;;;10.12;71.69;98857.22;5052464;28;20008;-78
2022/03/25 07:21:05;;;;;;;;;;;;;;;10.22;70.87;98860.91;5047612;28;20324;-78
2022/03/25 07:23:32;;;;;;;;;;;;;;;10.20;70.58;98865.69;5048144;28;19940;-78
2022/03/25 07:25:58;;;;;;;;;;;;;;;10.25;70.70;98864.94;5045827;28;19924;-80
2022/03/25 07:28:24;;;;;;;;;;;;;;;10.21;71.02;98866.50;5045138;28;19925;-80
2022/03/25 07:30:52;;;;;;;;;;;;;;;10.08;73.50;98866.72;5047024;28;19924;-79
2022/03/25 07:33:19;;;;;;;;;;;;;;;9.88;75.92;98863.63;5030119;28;19993;-79
2022/03/25 07:35:46;;;;;;;;;;;;;;;9.94;75.71;98866.16;5047856;28;19933;-78
2022/03/25 07:38:12;;;;;;;;;;;;;;;10.05;74.39;98872.53;5048967;28;19931;-77
2022/03/25 07:40:38;;;;;;;;;;;;;;;10.15;73.51;98862.09;5046972;28;19954;-80
2022/03/25 07:43:05;;;;;;;;;;;;;;;10.24;72.53;98877.47;5049538;28;19930;-78
2022/03/25 07:45:31;;;;;;;;;;;;;;;10.18;73.58;98869.63;5047137;28;19928;-79
2022/03/25 07:47:59;;;;;;;;;;;;;;;10.28;73.47;98867.16;5049577;28;19950;-76
2022/03/25 07:50:25;;;;;;;;;;;;;;;10.35;72.54;98873.16;5048136;28;20442;-78
2022/03/25 07:52:52;;;;;;;;;;;;;;;10.45;71.74;98872.56;5047990;28;19932;-77
2022/03/25 07:55:20;;;;;;;;;;;;;;;10.43;73.20;98875.44;5046702;28;19928;-79
2022/03/25 07:57:47;;;;;;;;;;;;;;;10.32;73.35;98872.81;5047365;28;19968;-79
2022/03/25 08:00:14;;;;;;;;;;;;;;;10.32;73.72;98868.31;5050253;28;20416;-78
2022/03/25 08:02:41;;;;;;;;;;;;;;;10.45;72.68;98878.72;5049917;28;19939;-79
2022/03/25 08:05:10;;;;;;;;;;;;;;;10.46;74.17;98868.84;5058852;28;19936;-79
2022/03/25 08:07:43;;;;;;;;;;;;;;;10.44;73.60;98871.72;5058064;28;19928;-78
2022/03/25 08:10:10;;;;;;;;;;;;;;;10.51;73.59;98872.41;5046399;28;19929;-79
2022/03/25 08:12:36;;;;;;;;;;;;;;;10.67;73.84;98877.00;5058548;28;19928;-77
2022/03/25 08:15:05;;;;;;;;;;;;;;;10.62;72.53;98868.88;5050884;28;20412;-79
2022/03/25 08:17:31;;;;;;;;;;;;;;;10.74;74.07;98874.97;5047815;28;19924;-78
2022/03/25 08:19:58;;;;;;;;;;;;;;;10.76;73.50;98874.72;5051162;28;19982;-78
2022/03/25 08:22:25;;;;;;;;;;;;;;;10.84;72.18;98877.00;5049466;28;19936;-79
2022/03/25 08:27:51;;;;;;;;;;;;;;;10.82;72.78;98879.94;5048195;28;20020;-78
2022/03/25 08:30:17;;;;;;;;;;;;;;;11.05;71.32;98878.19;5045165;28;19961;-78
2022/03/25 08:32:44;;;;;;;;;;;;;;;11.12;69.73;98879.63;5046399;28;19936;-80
2022/03/25 08:35:10;;;;;;;;;;;;;;;11.21;69.28;98885.38;5047511;28;20025;-79
2022/03/25 08:37:38;;;;;;;;;;;;;;;11.04;68.55;98881.91;5046817;28;19929;-80
2022/03/25 08:40:05;;;;;;;;;;;;;;;11.13;70.08;98891.13;5046373;28;19962;-80
2022/03/25 08:42:31;;;;;;;;;;;;;;;11.34;65.86;98883.19;5047421;28;19931;-77
2022/03/25 08:44:57;;;;;;;;;;;;;;;11.29;64.72;98884.97;5061285;28;19928;-79
2022/03/25 08:47:24;;;;;;;;;;;;;;;11.51;64.01;98885.88;5061532;28;19929;-78
2022/03/25 08:49:50;;;;;;;;;;;;;;;11.66;62.73;98890.63;5062263;28;19928;-78
2022/03/25 08:52:17;;;;;;;;;;;;;;;11.72;61.83;98887.81;5062994;28;20566;-79
2022/03/25 08:54:45;;;;;;;;;;;;;;;11.81;61.21;98888.19;5048686;28;19967;-79
2022/03/25 08:57:11;;;;;;;;;;;;;;;11.97;59.85;98886.53;5048245;28;19929;-78
2022/03/25 08:59:37;;;;;;;;;;;;;;;12.06;58.74;98880.50;5054808;28;19928;-78
2022/03/25 09:02:04;;;;;;;;;;;;;;;12.06;58.37;98880.50;5063840;28;20440;-79
2022/03/25 09:04:31;;;;;;;;;;;;;;;11.97;59.75;98881.16;5052891;28;19931;-78
2022/03/25 09:06:58;;;;;;;;;;;;;;;12.22;56.66;98884.16;5054480;28;19928;-79
2022/03/25 09:09:24;;;;;;;;;;;;;;;12.33;55.75;98881.34;5067431;28;20375;-79
2022/03/25 09:11:52;;;;;;;;;;;;;;;12.00;56.01;98883.34;5059018;28;19935;-79
2022/03/25 09:14:18;;;;;;;;;;;;;;;12.09;55.73;98884.53;5066097;28;19928;-79
2022/03/25 09:16:44;;;;;;;;;;;;;;;11.81;56.39;98888.19;5053138;28;19936;-79
2022/03/25 09:19:12;;;;;;;;;;;;;;;11.97;55.50;98878.50;5070869;28;20674;-79
2022/03/25 09:21:39;;;;;;;;;;;;;;;11.82;55.29;98890.59;5058269;28;19970;-80
2022/03/25 09:24:06;;;;;;;;;;;;;;;12.07;54.98;98883.97;5056723;28;19931;-79
2022/03/25 09:26:33;;;;;;;;;;;;;;;11.77;55.67;98879.03;5061534;28;19932;-79
2022/03/25 09:29:00;;;;;;;;;;;;;;;12.16;54.64;98875.25;5056827;28;19924;-80
2022/03/25 09:31:27;;;;;;;;;;;;;;;12.61;53.10;98874.97;5066253;28;19925;-79
2022/03/25 09:35:08;;;;;;;;;;;;;;;12.87;52.23;98876.03;5059579;28;19955;-79
2022/03/25 09:36:40;;;;;;;;;;;;;;;12.84;52.15;98871.19;5064957;28;19964;-79
2022/03/25 09:39:06;;;;;;;;;;;;;;;13.16;51.61;98874.69;5059432;28;19936;-79
2022/03/25 09:41:32;;;;;;;;;;;;;;;13.28;51.09;98866.47;5059875;28;19955;-80
2022/03/25 09:44:00;;;;;;;;;;;;;;;13.29;50.71;98876.13;5065639;28;20457;-79
2022/03/25 09:46:26;;;;;;;;;;;;;;;13.29;50.44;98873.44;5056415;28;19928;-81
2022/03/25 09:48:53;;;;;;;;;;;;;;;13.04;50.46;98873.22;5061108;28;19928;-80
2022/03/25 09:51:20;;;;;;;;;;;;;;;13.22;51.02;98868.31;5069024;28;19928;-80
2022/03/25 09:53:48;;;;;;;;;;;;;;;13.04;51.52;98870.53;5040053;28;19925;-79
2022/03/25 09:56:15;;;;;;;;;;;;;;;13.05;51.83;98874.84;5056227;28;20281;-79
2022/03/25 09:58:41;;;;;;;;;;;;;;;13.24;51.72;98873.44;5059636;28;19929;-79
2022/03/25 10:01:09;;;;;;;;;;;;;;;13.39;51.43;98874.34;5062600;28;19944;-80
2022/03/25 10:03:36;;;;;;;;;;;;;;;13.70;50.73;98878.03;5068559;28;20025;-80
2022/03/25 10:06:04;;;;;;;;;;;;;;;13.57;51.15;98870.44;5064440;28;19990;-81
2022/03/25 10:08:31;;;;;;;;;;;;;;;13.58;51.28;98872.06;5061340;28;19975;-80
2022/03/25 10:10:57;;;;;;;;;;;;;;;13.86;49.89;98858.28;5059082;28;20311;-79
2022/03/25 10:13:23;;;;;;;;;;;;;;;13.92;49.67;98861.78;5065053;28;19933;-80
2022/03/25 10:15:50;;;;;;;;;;;;;;;13.87;50.01;98859.88;5056995;28;20127;-79
2022/03/25 10:18:18;;;;;;;;;;;;;;;14.17;49.28;98856.53;5060715;28;19928;-79
2022/03/25 10:20:44;;;;;;;;;;;;;;;14.07;50.49;98861.84;5043333;28;19933;-78
2022/03/25 10:23:12;;;;;;;;;;;;;;;13.95;50.15;98848.66;5060196;28;20299;-79
2022/03/25 10:25:41;;;;;;;;;;;;;;;14.23;48.43;98846.59;5040817;28;19934;-79
2022/03/25 10:28:18;;;;;;;;;;;;;;;14.56;47.53;98843.50;5056190;28;20429;-79
2022/03/25 10:30:44;;;;;;;;;;;;;;;14.82;46.67;98847.03;5059382;28;19925;-80
2022/03/25 10:33:12;;;;;;;;;;;;;;;14.86;46.40;98848.91;5060366;28;19951;-79
2022/03/25 10:35:55;;;;;;;;;;;;;;;14.82;46.72;98845.16;5066745;28;19952;-79
2022/03/25 10:38:22;;;;;;;;;;;;;;;14.80;45.99;98846.47;5053497;28;20560;-80
2022/03/25 10:40:49;;;;;;;;;;;;;;;14.94;46.27;98843.03;5061049;28;19929;-79
2022/03/25 10:43:16;;;;;;;;;;;;;;;14.91;45.92;98843.56;5065180;28;19932;-79
2022/03/25 10:45:42;;;;;;;;;;;;;;;14.82;46.78;98839.78;5056387;28;19929;-79
2022/03/25 10:48:12;;;;;;;;;;;;;;;14.79;46.10;98837.59;5056140;28;19978;-79
2022/03/25 10:50:54;;;;;;;;;;;;;;;14.86;45.80;98843.53;5058076;28;19929;-80
2022/03/25 10:53:23;;;;;;;;;;;;;;;15.25;44.67;98832.25;5060101;28;19928;-80
2022/03/25 10:55:52;;;;;;;;;;;;;;;15.37;44.46;98833.59;5059387;28;19931;-80
2022/03/25 10:58:19;;;;;;;;;;;;;;;15.41;44.11;98836.53;5052281;28;19944;-80
2022/03/25 11:00:45;;;;;;;;;;;;;;;15.46;44.29;98826.56;5061136;28;19933;-80
2022/03/25 11:03:14;;;;;;;;;;;;;;;15.30;43.90;98834.91;5048006;28;19932;-79
2022/03/25 11:05:40;;;;;;;;;;;;;;;15.35;43.99;98830.34;5059797;28;19933;-79
2022/03/25 11:08:07;;;;;;;;;;;;;;;15.36;44.07;98831.97;5059011;28;20371;-79
2022/03/25 11:10:35;;;;;;;;;;;;;;;15.43;42.69;98818.22;5059344;28;19928;-79
2022/03/25 11:13:03;;;;;;;;;;;;;;;15.48;42.73;98831.69;5060438;28;19924;-77
2022/03/25 11:15:30;;;;;;;;;;;;;;;15.54;42.92;98823.34;5058563;28;19928;-79
2022/03/25 11:17:57;;;;;;;;;;;;;;;15.69;42.19;98819.78;5057785;28;19928;-78
2022/03/25 11:20:25;;;;;;;;;;;;;;;15.24;43.21;98828.75;5059088;28;19936;-79
2022/03/25 11:22:52;;;;;;;;;;;;;;;15.23;43.84;98820.94;5057650;28;19924;-79
2022/03/25 11:25:21;;;;;;;;;;;;;;;15.71;41.62;98808.75;5040973;28;19928;-78
2022/03/25 11:27:50;;;;;;;;;;;;;;;16.02;41.04;98811.06;5055706;28;19924;-80
2022/03/25 11:30:17;;;;;;;;;;;;;;;15.90;41.77;98812.47;5055316;28;19935;-79
2022/03/25 11:32:47;;;;;;;;;;;;;;;16.03;41.17;98801.88;5056847;28;19929;-79
2022/03/25 11:35:18;;;;;;;;;;;;;;;16.33;40.34;98794.75;5054899;28;19930;-80
2022/03/25 11:37:44;;;;;;;;;;;;;;;15.98;41.47;98810.00;5064401;28;19925;-79
2022/03/25 11:40:25;;;;;;;;;;;;;;;15.70;42.18;98807.94;5054593;28;19928;-80
2022/03/25 11:42:53;;;;;;;;;;;;;;;15.99;41.23;98806.25;5058459;28;20314;-79
2022/03/25 11:45:36;;;;;;;;;;;;;;;16.01;41.88;98804.06;5058068;28;19929;-80
2022/03/25 11:48:21;;;;;;;;;;;;;;;16.18;40.70;98799.13;5054412;28;20807;-80
2022/03/25 11:50:47;;;;;;;;;;;;;;;16.28;41.49;98792.09;5039708;28;19940;-80
2022/03/25 11:53:28;;;;;;;;;;;;;;;16.10;42.09;98791.63;5057844;28;19931;-79
2022/03/25 11:55:56;;;;;;;;;;;;;;;16.32;40.54;98782.34;5046412;28;19924;-79
2022/03/25 11:58:24;;;;;;;;;;;;;;;16.59;39.74;98785.44;5046302;28;19925;-78
2022/03/25 12:00:52;;;;;;;;;;;;;;;16.79;39.27;98787.19;5051609;28;19951;-79
2022/03/25 12:03:19;;;;;;;;;;;;;;;16.78;39.48;98789.06;5066859;28;19967;-78
2022/03/25 12:05:57;;;;;;;;;;;;;;;16.26;41.27;98776.19;5064735;28;19928;-79
2022/03/25 12:08:28;;;;;;;;;;;;;;;16.45;40.41;98776.34;5058365;28;19986;-78
2022/03/25 12:10:55;;;;;;;;;;;;;;;16.59;39.85;98772.75;5058259;28;19925;-80
2022/03/25 12:13:22;;;;;;;;;;;;;;;16.86;39.76;98776.88;5062410;28;19925;-79
2022/03/25 12:15:51;;;;;;;;;;;;;;;17.05;39.14;98765.09;5050828;28;19929;-79
2022/03/25 12:18:40;;;;;;;;;;;;;;;16.47;40.19;98774.97;5040169;28;19983;-80
2022/03/25 12:21:11;;;;;;;;;;;;;;;16.59;40.84;98766.56;5067131;28;19972;-79
2022/03/25 12:23:38;;;;;;;;;;;;;;;16.50;40.78;98769.00;5038140;28;19928;-79
2022/03/25 12:26:06;;;;;;;;;;;;;;;17.01;39.54;98758.69;5054489;28;21232;-79
2022/03/25 12:28:32;;;;;;;;;;;;;;;16.85;40.22;98759.88;5056407;28;19925;-78
2022/03/25 12:31:03;;;;;;;;;;;;;;;17.26;39.04;98755.72;5056454;28;19929;-79
2022/03/25 12:33:30;;;;;;;;;;;;;;;16.87;39.78;98743.41;5057365;28;19928;-79
2022/03/25 12:35:59;;;;;;;;;;;;;;;17.21;39.19;98742.25;5064634;28;19929;-79
2022/03/25 12:38:26;;;;;;;;;;;;;;;17.27;39.35;98745.72;5057392;28;19936;-79
2022/03/25 12:40:53;;;;;;;;;;;;;;;17.19;39.88;98751.75;5057138;28;20013;-79
2022/03/25 12:43:19;;;;;;;;;;;;;;;17.07;39.63;98746.75;5062557;28;19979;-78
2022/03/25 12:45:48;;;;;;;;;;;;;;;17.49;38.59;98756.00;5053777;28;19933;-77
2022/03/25 12:48:17;;;;;;;;;;;;;;;17.66;38.27;98742.91;5053211;28;20340;-80
2022/03/25 12:50:44;;;;;;;;;;;;;;;17.28;39.08;98750.84;5056340;28;19929;-80
2022/03/25 12:53:11;;;;;;;;;;;;;;;17.06;39.26;98749.72;5057026;28;19939;-79